sensor_id;sensor_type;location;lat;lon;timestamp;pressure;altitude;pressure_sealevel;temperature;humidity
62124;BME280;48110;47.532;19.078;2023-08-21T00:02:36;100721.03;;;22.80;100.00
62124;BME280;48110;47.532;19.078;2023-08-21T00:05:39;100727.25;;;22.69;100.00
62124;BME280;48110;47.532;19.078;2023-08-21T00:08:42;100725.72;;;22.61;100.00
62124;BME280;48110;47.532;19.078;2023-08-21T00:11:46;100718.44;;;22.62;100.00
62124;BME280;48110;47.532;19.078;2023-08-21T00:14:48;100723.72;;;22.57;100.00
62124;BME280;48110;47.532;19.078;2023-08-21T00:17:51;100720.78;;;22.58;100.00
62124;BME280;48110;47.532;19.078;2023-08-21T00:20:54;100719.16;;;22.57;100.00
62124;BME280;48110;47.532;19.078;2023-08-21T00:23:56;100730.94;;;22.51;100.00
62124;BME280;48110;47.532;19.078;2023-08-21T00:26:59;100731.16;;;22.38;100.00
62124;BME280;48110;47.532;19.078;2023-08-21T00:30:02;100729.31;;;22.27;100.00
62124;BME280;48110;47.532;19.078;2023-08-21T00:33:05;100726.00;;;22.25;100.00
62124;BME280;48110;47.532;19.078;2023-08-21T00:36:08;100729.53;;;22.25;100.00
62124;BME280;48110;47.532;19.078;2023-08-21T00:39:11;100730.81;;;22.23;100.00
62124;BME280;48110;47.532;19.078;2023-08-21T00:42:13;100736.94;;;22.18;100.00
62124;BME280;48110;47.532;19.078;2023-08-21T00:45:17;100748.94;;;22.10;100.00
62124;BME280;48110;47.532;19.078;2023-08-21T00:48:20;100749.03;;;22.04;100.00
62124;BME280;48110;47.532;19.078;2023-08-21T00:51:22;100746.31;;;22.04;100.00
62124;BME280;48110;47.532;19.078;2023-08-21T00:54:26;100746.59;;;22.02;100.00
62124;BME280;48110;47.532;19.078;2023-08-21T00:57:29;100745.16;;;22.00;100.00
62124;BME280;48110;47.532;19.078;2023-08-21T01:00:33;100745.25;;;21.93;100.00
62124;BME280;48110;47.532;19.078;2023-08-21T01:03:36;100745.69;;;21.90;100.00
62124;BME280;48110;47.532;19.078;2023-08-21T01:06:39;100749.09;;;21.86;100.00
62124;BME280;48110;47.532;19.078;2023-08-21T01:10:03;100744.03;;;21.89;100.00
62124;BME280;48110;47.532;19.078;2023-08-21T01:13:22;100746.41;;;21.86;100.00
62124;BME280;48110;47.532;19.078;2023-08-21T01:16:27;100745.00;;;21.83;100.00
62124;BME280;48110;47.532;19.078;2023-08-21T01:19:42;100752.97;;;21.78;100.00
62124;BME280;48110;47.532;19.078;2023-08-21T01:22:45;100760.00;;;21.79;100.00
62124;BME280;48110;47.532;19.078;2023-08-21T01:25:48;100752.84;;;21.73;100.00
62124;BME280;48110;47.532;19.078;2023-08-21T01:28:51;100761.44;;;21.82;100.00
62124;BME280;48110;47.532;19.078;2023-08-21T01:35:21;100760.84;;;21.91;100.00
62124;BME280;48110;47.532;19.078;2023-08-21T01:38:25;100758.50;;;21.83;100.00
62124;BME280;48110;47.532;19.078;2023-08-21T01:41:28;100754.84;;;21.78;100.00
62124;BME280;48110;47.532;19.078;2023-08-21T01:44:30;100766.91;;;21.75;100.00
62124;BME280;48110;47.532;19.078;2023-08-21T01:47:33;100765.53;;;21.73;100.00
62124;BME280;48110;47.532;19.078;2023-08-21T01:50:36;100765.53;;;21.73;100.00
62124;BME280;48110;47.532;19.078;2023-08-21T01:53:39;100767.97;;;21.74;100.00
62124;BME280;48110;47.532;19.078;2023-08-21T01:56:43;100767.88;;;21.81;100.00
62124;BME280;48110;47.532;19.078;2023-08-21T01:59:45;100769.75;;;21.80;100.00
62124;BME280;48110;47.532;19.078;2023-08-21T02:02:48;100776.19;;;21.79;100.00
62124;BME280;48110;47.532;19.078;2023-08-21T02:05:55;100777.28;;;21.78;100.00
62124;BME280;48110;47.532;19.078;2023-08-21T02:09:00;100780.56;;;21.80;100.00
62124;BME280;48110;47.532;19.078;2023-08-21T02:12:03;100774.94;;;21.82;100.00
62124;BME280;48110;47.532;19.078;2023-08-21T02:15:06;100775.28;;;21.85;100.00
62124;BME280;48110;47.532;19.078;2023-08-21T02:18:09;100771.19;;;21.83;100.00
62124;BME280;48110;47.532;19.078;2023-08-21T02:21:13;100773.63;;;21.73;100.00
62124;BME280;48110;47.532;19.078;2023-08-21T02:24:16;100772.94;;;21.77;100.00
62124;BME280;48110;47.532;19.078;2023-08-21T02:27:19;100769.31;;;21.83;100.00
62124;BME280;48110;47.532;19.078;2023-08-21T02:30:23;100772.44;;;21.80;100.00
62124;BME280;48110;47.532;19.078;2023-08-21T02:33:27;100770.81;;;21.79;100.00
62124;BME280;48110;47.532;19.078;2023-08-21T02:36:30;100768.56;;;21.76;100.00
62124;BME280;48110;47.532;19.078;2023-08-21T02:39:34;100768.78;;;21.75;100.00
62124;BME280;48110;47.532;19.078;2023-08-21T02:42:37;100772.69;;;21.79;100.00
62124;BME280;48110;47.532;19.078;2023-08-21T02:45:40;100773.06;;;21.82;100.00
62124;BME280;48110;47.532;19.078;2023-08-21T02:48:44;100773.88;;;21.83;100.00
62124;BME280;48110;47.532;19.078;2023-08-21T02:51:47;100774.31;;;21.80;100.00
62124;BME280;48110;47.532;19.078;2023-08-21T02:54:50;100778.19;;;21.72;100.00
62124;BME280;48110;47.532;19.078;2023-08-21T02:57:53;100774.91;;;21.70;100.00
62124;BME280;48110;47.532;19.078;2023-08-21T03:00:55;100771.09;;;21.59;100.00
62124;BME280;48110;47.532;19.078;2023-08-21T03:03:58;100771.34;;;21.58;100.00
62124;BME280;48110;47.532;19.078;2023-08-21T03:07:01;100767.00;;;21.57;100.00
62124;BME280;48110;47.532;19.078;2023-08-21T03:10:04;100767.22;;;21.55;100.00
62124;BME280;48110;47.532;19.078;2023-08-21T03:13:07;100771.22;;;21.53;100.00
62124;BME280;48110;47.532;19.078;2023-08-21T03:16:10;100769.91;;;21.55;100.00
62124;BME280;48110;47.532;19.078;2023-08-21T03:19:13;100769.56;;;21.52;100.00
62124;BME280;48110;47.532;19.078;2023-08-21T03:22:16;100772.03;;;21.53;100.00
62124;BME280;48110;47.532;19.078;2023-08-21T03:25:19;100772.25;;;21.52;100.00
62124;BME280;48110;47.532;19.078;2023-08-21T03:28:21;100774.12;;;21.51;100.00
62124;BME280;48110;47.532;19.078;2023-08-21T03:31:24;100771.91;;;21.48;100.00
62124;BME280;48110;47.532;19.078;2023-08-21T03:34:27;100773.66;;;21.43;100.00
62124;BME280;48110;47.532;19.078;2023-08-21T03:37:31;100783.47;;;21.37;100.00
62124;BME280;48110;47.532;19.078;2023-08-21T03:40:34;100771.94;;;21.30;100.00
62124;BME280;48110;47.532;19.078;2023-08-21T03:43:37;100779.09;;;21.24;100.00
62124;BME280;48110;47.532;19.078;2023-08-21T03:46:39;100779.53;;;21.21;100.00
62124;BME280;48110;47.532;19.078;2023-08-21T03:49:43;100783.38;;;21.14;100.00
62124;BME280;48110;47.532;19.078;2023-08-21T03:52:46;100779.87;;;21.07;100.00
62124;BME280;48110;47.532;19.078;2023-08-21T03:55:49;100784.31;;;21.01;100.00
62124;BME280;48110;47.532;19.078;2023-08-21T03:58:51;100784.31;;;21.01;100.00
62124;BME280;48110;47.532;19.078;2023-08-21T04:01:54;100784.72;;;21.05;100.00
62124;BME280;48110;47.532;19.078;2023-08-21T04:04:57;100780.72;;;21.07;100.00
62124;BME280;48110;47.532;19.078;2023-08-21T04:08:00;100773.66;;;21.06;100.00
62124;BME280;48110;47.532;19.078;2023-08-21T04:11:04;100774.88;;;21.10;100.00
62124;BME280;48110;47.532;19.078;2023-08-21T04:14:06;100779.06;;;21.06;100.00
62124;BME280;48110;47.532;19.078;2023-08-21T04:17:09;100777.19;;;21.07;100.00
62124;BME280;48110;47.532;19.078;2023-08-21T04:20:12;100773.44;;;21.08;100.00
62124;BME280;48110;47.532;19.078;2023-08-21T04:23:15;100778.84;;;21.08;100.00
62124;BME280;48110;47.532;19.078;2023-08-21T04:26:18;100782.22;;;21.21;100.00
62124;BME280;48110;47.532;19.078;2023-08-21T04:29:20;100794.00;;;21.27;100.00
62124;BME280;48110;47.532;19.078;2023-08-21T04:32:23;100784.62;;;21.30;100.00
62124;BME280;48110;47.532;19.078;2023-08-21T04:35:26;100795.09;;;21.38;100.00
62124;BME280;48110;47.532;19.078;2023-08-21T04:38:30;100789.37;;;21.46;100.00
62124;BME280;48110;47.532;19.078;2023-08-21T04:41:32;100787.31;;;21.59;100.00
62124;BME280;48110;47.532;19.078;2023-08-21T04:44:35;100798.34;;;21.58;100.00
62124;BME280;48110;47.532;19.078;2023-08-21T04:47:38;100797.41;;;21.64;100.00
62124;BME280;48110;47.532;19.078;2023-08-21T04:50:41;100802.44;;;21.60;100.00
62124;BME280;48110;47.532;19.078;2023-08-21T04:53:44;100797.53;;;21.57;100.00
62124;BME280;48110;47.532;19.078;2023-08-21T04:56:47;100803.19;;;21.67;100.00
62124;BME280;48110;47.532;19.078;2023-08-21T04:59:51;100804.38;;;21.72;100.00
62124;BME280;48110;47.532;19.078;2023-08-21T05:02:54;100802.66;;;21.89;100.00
62124;BME280;48110;47.532;19.078;2023-08-21T05:05:57;100808.06;;;21.89;100.00
62124;BME280;48110;47.532;19.078;2023-08-21T05:09:00;100812.78;;;21.93;100.00
62124;BME280;48110;47.532;19.078;2023-08-21T05:12:05;100823.66;;;22.17;100.00
62124;BME280;48110;47.532;19.078;2023-08-21T05:15:08;100813.53;;;22.24;100.00
62124;BME280;48110;47.532;19.078;2023-08-21T05:18:11;100822.72;;;22.34;100.00
62124;BME280;48110;47.532;19.078;2023-08-21T05:21:14;100812.16;;;22.44;100.00
62124;BME280;48110;47.532;19.078;2023-08-21T05:24:17;100820.97;;;22.51;100.00
62124;BME280;48110;47.532;19.078;2023-08-21T05:27:20;100821.56;;;22.65;100.00
62124;BME280;48110;47.532;19.078;2023-08-21T05:30:29;100826.97;;;22.77;100.00
62124;BME280;48110;47.532;19.078;2023-08-21T05:34:35;100833.66;;;22.98;100.00
62124;BME280;48110;47.532;19.078;2023-08-21T05:39:10;100828.59;;;23.01;100.00
62124;BME280;48110;47.532;19.078;2023-08-21T05:42:13;100831.75;;;23.10;100.00
62124;BME280;48110;47.532;19.078;2023-08-21T05:45:16;100835.03;;;23.23;100.00
62124;BME280;48110;47.532;19.078;2023-08-21T05:48:20;100836.75;;;23.29;100.00
62124;BME280;48110;47.532;19.078;2023-08-21T05:51:22;100840.97;;;23.49;100.00
62124;BME280;48110;47.532;19.078;2023-08-21T05:54:25;100837.09;;;23.73;100.00
62124;BME280;48110;47.532;19.078;2023-08-21T05:57:30;100839.78;;;23.73;100.00
62124;BME280;48110;47.532;19.078;2023-08-21T06:00:34;100838.91;;;23.84;100.00
62124;BME280;48110;47.532;19.078;2023-08-21T06:03:37;100837.69;;;23.92;100.00
62124;BME280;48110;47.532;19.078;2023-08-21T06:06:40;100827.69;;;24.09;100.00
62124;BME280;48110;47.532;19.078;2023-08-21T06:09:43;100836.03;;;24.19;100.00
62124;BME280;48110;47.532;19.078;2023-08-21T06:12:46;100842.28;;;24.36;100.00
62124;BME280;48110;47.532;19.078;2023-08-21T06:15:50;100842.66;;;24.45;100.00
62124;BME280;48110;47.532;19.078;2023-08-21T06:18:54;100844.75;;;24.54;100.00
62124;BME280;48110;47.532;19.078;2023-08-21T06:21:57;100843.94;;;24.76;100.00
62124;BME280;48110;47.532;19.078;2023-08-21T06:25:00;100849.63;;;24.91;100.00
62124;BME280;48110;47.532;19.078;2023-08-21T06:28:03;100847.66;;;25.08;100.00
62124;BME280;48110;47.532;19.078;2023-08-21T06:31:08;100855.19;;;25.23;100.00
62124;BME280;48110;47.532;19.078;2023-08-21T06:34:12;100852.72;;;25.43;100.00
62124;BME280;48110;47.532;19.078;2023-08-21T06:37:14;100848.91;;;25.61;100.00
62124;BME280;48110;47.532;19.078;2023-08-21T06:40:17;100849.91;;;25.81;100.00
62124;BME280;48110;47.532;19.078;2023-08-21T06:43:21;100853.91;;;26.01;100.00
62124;BME280;48110;47.532;19.078;2023-08-21T06:46:24;100851.22;;;26.32;100.00
62124;BME280;48110;47.532;19.078;2023-08-21T06:49:27;100849.41;;;26.43;100.00
62124;BME280;48110;47.532;19.078;2023-08-21T06:52:30;100849.81;;;26.62;100.00
62124;BME280;48110;47.532;19.078;2023-08-21T06:55:32;100853.13;;;26.74;100.00
62124;BME280;48110;47.532;19.078;2023-08-21T06:58:35;100852.28;;;27.10;100.00
62124;BME280;48110;47.532;19.078;2023-08-21T07:01:38;100850.34;;;27.68;100.00
62124;BME280;48110;47.532;19.078;2023-08-21T07:04:40;100848.78;;;28.13;100.00
62124;BME280;48110;47.532;19.078;2023-08-21T07:07:43;100838.62;;;28.69;100.00
62124;BME280;48110;47.532;19.078;2023-08-21T07:10:46;100849.81;;;30.06;91.16
62124;BME280;48110;47.532;19.078;2023-08-21T07:13:49;100847.84;;;29.03;99.68
62124;BME280;48110;47.532;19.078;2023-08-21T07:16:52;100854.88;;;29.19;100.00
62124;BME280;48110;47.532;19.078;2023-08-21T07:19:54;100850.63;;;28.68;100.00
62124;BME280;48110;47.532;19.078;2023-08-21T07:23:00;100853.09;;;29.54;98.53
62124;BME280;48110;47.532;19.078;2023-08-21T07:26:03;100859.63;;;30.07;89.38
62124;BME280;48110;47.532;19.078;2023-08-21T07:29:07;100855.41;;;31.30;81.69
62124;BME280;48110;47.532;19.078;2023-08-21T07:32:10;100858.62;;;31.56;78.04
62124;BME280;48110;47.532;19.078;2023-08-21T07:35:13;100853.03;;;32.35;69.93
62124;BME280;48110;47.532;19.078;2023-08-21T07:38:16;100854.78;;;33.18;64.52
62124;BME280;48110;47.532;19.078;2023-08-21T07:41:19;100858.31;;;33.46;64.69
62124;BME280;48110;47.532;19.078;2023-08-21T07:44:21;100857.13;;;34.11;60.88
62124;BME280;48110;47.532;19.078;2023-08-21T07:47:27;100855.81;;;34.30;58.50
62124;BME280;48110;47.532;19.078;2023-08-21T07:50:29;100861.38;;;35.01;54.65
62124;BME280;48110;47.532;19.078;2023-08-21T07:53:32;100862.97;;;35.50;52.11
62124;BME280;48110;47.532;19.078;2023-08-21T07:56:37;100864.66;;;35.94;49.94
62124;BME280;48110;47.532;19.078;2023-08-21T07:59:42;100861.56;;;35.95;49.88
62124;BME280;48110;47.532;19.078;2023-08-21T08:02:44;100861.03;;;35.50;52.02
62124;BME280;48110;47.532;19.078;2023-08-21T08:05:47;100867.31;;;35.25;50.44
62124;BME280;48110;47.532;19.078;2023-08-21T08:08:57;100866.78;;;35.71;49.87
62124;BME280;48110;47.532;19.078;2023-08-21T08:11:59;100865.75;;;36.44;48.82
62124;BME280;48110;47.532;19.078;2023-08-21T08:15:02;100870.72;;;36.77;49.19
62124;BME280;48110;47.532;19.078;2023-08-21T08:18:11;100871.13;;;36.32;48.95
62124;BME280;48110;47.532;19.078;2023-08-21T08:21:13;100873.88;;;36.41;49.73
62124;BME280;48110;47.532;19.078;2023-08-21T08:24:16;100871.81;;;34.06;53.56
62124;BME280;48110;47.532;19.078;2023-08-21T08:27:19;100860.28;;;36.19;49.55
62124;BME280;48110;47.532;19.078;2023-08-21T08:30:22;100854.75;;;35.76;47.97
62124;BME280;48110;47.532;19.078;2023-08-21T08:33:26;100858.16;;;37.88;44.04
62124;BME280;48110;47.532;19.078;2023-08-21T08:36:29;100856.78;;;37.61;44.26
62124;BME280;48110;47.532;19.078;2023-08-21T08:39:32;100855.94;;;38.02;43.58
62124;BME280;48110;47.532;19.078;2023-08-21T08:42:35;100852.25;;;36.43;46.66
62124;BME280;48110;47.532;19.078;2023-08-21T08:45:40;100853.91;;;37.20;44.92
62124;BME280;48110;47.532;19.078;2023-08-21T08:48:43;100855.44;;;38.78;43.01
62124;BME280;48110;47.532;19.078;2023-08-21T08:51:46;100859.72;;;38.63;40.65
62124;BME280;48110;47.532;19.078;2023-08-21T08:54:52;100870.16;;;39.91;38.41
62124;BME280;48110;47.532;19.078;2023-08-21T08:57:56;100874.81;;;39.87;36.31
62124;BME280;48110;47.532;19.078;2023-08-21T09:00:59;100876.34;;;40.13;37.37
62124;BME280;48110;47.532;19.078;2023-08-21T09:04:02;100870.91;;;41.57;36.83
62124;BME280;48110;47.532;19.078;2023-08-21T09:07:10;100869.22;;;40.43;36.18
62124;BME280;48110;47.532;19.078;2023-08-21T09:10:14;100864.50;;;40.59;35.20
62124;BME280;48110;47.532;19.078;2023-08-21T09:13:18;100856.75;;;40.09;35.55
62124;BME280;48110;47.532;19.078;2023-08-21T09:16:24;100858.22;;;39.27;38.31
62124;BME280;48110;47.532;19.078;2023-08-21T09:19:27;100859.88;;;40.20;36.17
62124;BME280;48110;47.532;19.078;2023-08-21T09:22:30;100847.78;;;40.00;37.27
62124;BME280;48110;47.532;19.078;2023-08-21T09:25:39;100849.06;;;38.08;40.05
62124;BME280;48110;47.532;19.078;2023-08-21T09:28:42;100849.25;;;38.36;40.21
62124;BME280;48110;47.532;19.078;2023-08-21T09:31:45;100842.59;;;40.14;35.69
62124;BME280;48110;47.532;19.078;2023-08-21T09:34:48;100840.84;;;40.81;34.87
62124;BME280;48110;47.532;19.078;2023-08-21T09:37:51;100840.94;;;39.70;36.23
62124;BME280;48110;47.532;19.078;2023-08-21T09:40:57;100841.19;;;41.84;32.85
62124;BME280;48110;47.532;19.078;2023-08-21T09:44:01;100824.84;;;40.94;34.15
62124;BME280;48110;47.532;19.078;2023-08-21T09:47:11;100829.63;;;42.43;31.92
62124;BME280;48110;47.532;19.078;2023-08-21T09:50:15;100831.91;;;42.61;32.05
62124;BME280;48110;47.532;19.078;2023-08-21T09:53:18;100833.91;;;42.60;31.46
62124;BME280;48110;47.532;19.078;2023-08-21T09:56:22;100823.78;;;40.51;34.80
62124;BME280;48110;47.532;19.078;2023-08-21T09:59:25;100819.63;;;42.42;32.03
62124;BME280;48110;47.532;19.078;2023-08-21T10:02:28;100814.25;;;40.99;34.04
62124;BME280;48110;47.532;19.078;2023-08-21T10:05:34;100804.94;;;37.62;38.73
62124;BME280;48110;47.532;19.078;2023-08-21T10:08:39;100803.22;;;37.07;39.67
62124;BME280;48110;47.532;19.078;2023-08-21T10:11:45;100799.03;;;36.63;40.95
62124;BME280;48110;47.532;19.078;2023-08-21T10:14:47;100794.66;;;35.90;42.24
62124;BME280;48110;47.532;19.078;2023-08-21T10:17:50;100796.91;;;35.19;43.01
62124;BME280;48110;47.532;19.078;2023-08-21T10:20:53;100783.22;;;34.26;45.05
62124;BME280;48110;47.532;19.078;2023-08-21T10:23:56;100777.81;;;32.91;50.07
62124;BME280;48110;47.532;19.078;2023-08-21T10:27:02;100774.47;;;32.67;52.66
62124;BME280;48110;47.532;19.078;2023-08-21T10:30:19;100778.34;;;32.66;53.32
62124;BME280;48110;47.532;19.078;2023-08-21T10:33:45;100770.56;;;33.09;51.57
62124;BME280;48110;47.532;19.078;2023-08-21T10:37:04;100778.00;;;32.95;52.03
62124;BME280;48110;47.532;19.078;2023-08-21T10:40:22;100779.47;;;33.42;51.12
62124;BME280;48110;47.532;19.078;2023-08-21T10:43:44;100772.97;;;34.97;45.09
62124;BME280;48110;47.532;19.078;2023-08-21T10:46:51;100771.50;;;37.88;39.78
62124;BME280;48110;47.532;19.078;2023-08-21T10:50:05;100783.25;;;38.62;37.45
62124;BME280;48110;47.532;19.078;2023-08-21T10:53:10;100777.81;;;40.73;33.49
62124;BME280;48110;47.532;19.078;2023-08-21T10:56:17;100780.44;;;39.91;34.17
62124;BME280;48110;47.532;19.078;2023-08-21T10:59:20;100780.03;;;41.14;32.72
62124;BME280;48110;47.532;19.078;2023-08-21T11:02:24;100781.69;;;40.68;33.15
62124;BME280;48110;47.532;19.078;2023-08-21T11:05:29;100784.31;;;40.02;33.28
62124;BME280;48110;47.532;19.078;2023-08-21T11:08:33;100774.25;;;40.57;31.52
62124;BME280;48110;47.532;19.078;2023-08-21T11:11:36;100769.53;;;42.04;30.15
62124;BME280;48110;47.532;19.078;2023-08-21T11:14:40;100770.09;;;40.82;31.16
62124;BME280;48110;47.532;19.078;2023-08-21T11:17:59;100772.66;;;42.67;29.23
62124;BME280;48110;47.532;19.078;2023-08-21T11:21:08;100771.44;;;43.47;28.86
62124;BME280;48110;47.532;19.078;2023-08-21T11:24:11;100763.97;;;42.27;28.95
62124;BME280;48110;47.532;19.078;2023-08-21T11:27:16;100764.88;;;42.57;28.18
62124;BME280;48110;47.532;19.078;2023-08-21T11:30:22;100766.00;;;43.31;27.47
62124;BME280;48110;47.532;19.078;2023-08-21T11:33:26;100764.12;;;43.72;27.03
62124;BME280;48110;47.532;19.078;2023-08-21T11:36:29;100762.94;;;42.35;28.38
62124;BME280;48110;47.532;19.078;2023-08-21T11:39:43;100761.25;;;44.43;26.17
62124;BME280;48110;47.532;19.078;2023-08-21T11:42:46;100758.66;;;44.24;25.96
62124;BME280;48110;47.532;19.078;2023-08-21T11:45:49;100756.31;;;44.77;26.02
62124;BME280;48110;47.532;19.078;2023-08-21T11:49:00;100768.13;;;46.33;24.81
62124;BME280;48110;47.532;19.078;2023-08-21T11:52:05;100767.16;;;47.38;22.92
62124;BME280;48110;47.532;19.078;2023-08-21T11:55:09;100750.84;;;45.99;24.61
62124;BME280;48110;47.532;19.078;2023-08-21T11:58:17;100743.44;;;44.65;25.00
62124;BME280;48110;47.532;19.078;2023-08-21T12:01:21;100752.50;;;46.56;22.80
62124;BME280;48110;47.532;19.078;2023-08-21T12:04:25;100743.75;;;48.69;21.21
62124;BME280;48110;47.532;19.078;2023-08-21T12:07:29;100733.47;;;49.81;21.73
62124;BME280;48110;47.532;19.078;2023-08-21T12:10:32;100736.94;;;47.53;22.47
62124;BME280;48110;47.532;19.078;2023-08-21T12:13:34;100726.25;;;42.85;28.57
62124;BME280;48110;47.532;19.078;2023-08-21T12:16:38;100735.22;;;46.76;23.50
62124;BME280;48110;47.532;19.078;2023-08-21T12:19:40;100731.25;;;46.31;23.79
62124;BME280;48110;47.532;19.078;2023-08-21T12:22:44;100733.88;;;47.95;22.11
62124;BME280;48110;47.532;19.078;2023-08-21T12:25:47;100728.34;;;45.77;24.30
62124;BME280;48110;47.532;19.078;2023-08-21T12:28:50;100721.69;;;47.50;22.62
62124;BME280;48110;47.532;19.078;2023-08-21T12:31:52;100722.34;;;45.75;24.08
62124;BME280;48110;47.532;19.078;2023-08-21T12:34:55;100725.00;;;47.31;21.63
62124;BME280;48110;47.532;19.078;2023-08-21T12:37:58;100720.84;;;47.57;21.33
62124;BME280;48110;47.532;19.078;2023-08-21T12:41:02;100718.37;;;45.83;23.51
62124;BME280;48110;47.532;19.078;2023-08-21T12:44:04;100721.63;;;46.14;22.55
62124;BME280;48110;47.532;19.078;2023-08-21T12:47:11;100720.69;;;48.78;20.08
62124;BME280;48110;47.532;19.078;2023-08-21T12:50:15;100716.62;;;50.00;18.74
62124;BME280;48110;47.532;19.078;2023-08-21T12:53:18;100715.44;;;50.68;18.27
62124;BME280;48110;47.532;19.078;2023-08-21T12:56:21;100708.09;;;47.42;21.55
62124;BME280;48110;47.532;19.078;2023-08-21T12:59:24;100702.34;;;48.63;20.40
62124;BME280;48110;47.532;19.078;2023-08-21T13:02:27;100710.34;;;46.71;22.67
62124;BME280;48110;47.532;19.078;2023-08-21T13:05:30;100700.88;;;45.04;23.70
62124;BME280;48110;47.532;19.078;2023-08-21T13:08:33;100691.09;;;45.66;23.21
62124;BME280;48110;47.532;19.078;2023-08-21T13:11:36;100701.41;;;49.10;20.18
62124;BME280;48110;47.532;19.078;2023-08-21T13:14:38;100691.53;;;47.54;21.11
62124;BME280;48110;47.532;19.078;2023-08-21T13:17:41;100685.09;;;48.13;19.94
62124;BME280;48110;47.532;19.078;2023-08-21T13:20:45;100686.88;;;47.34;21.17
62124;BME280;48110;47.532;19.078;2023-08-21T13:23:49;100687.53;;;51.09;18.89
62124;BME280;48110;47.532;19.078;2023-08-21T13:26:52;100680.47;;;50.62;18.27
62124;BME280;48110;47.532;19.078;2023-08-21T13:29:55;100675.47;;;47.55;20.45
62124;BME280;48110;47.532;19.078;2023-08-21T13:32:58;100680.38;;;49.99;18.86
62124;BME280;48110;47.532;19.078;2023-08-21T13:36:02;100669.34;;;46.98;20.29
62124;BME280;48110;47.532;19.078;2023-08-21T13:39:04;100670.78;;;50.39;18.16
62124;BME280;48110;47.532;19.078;2023-08-21T13:42:08;100664.31;;;48.82;19.35
62124;BME280;48110;47.532;19.078;2023-08-21T13:45:13;100669.81;;;48.58;19.69
62124;BME280;48110;47.532;19.078;2023-08-21T13:48:16;100664.50;;;48.23;19.25
62124;BME280;48110;47.532;19.078;2023-08-21T13:51:19;100657.56;;;48.75;19.26
62124;BME280;48110;47.532;19.078;2023-08-21T13:54:24;100657.91;;;46.18;21.17
62124;BME280;48110;47.532;19.078;2023-08-21T13:57:26;100662.47;;;47.13;20.38
62124;BME280;48110;47.532;19.078;2023-08-21T14:00:29;100651.31;;;43.51;23.60
62124;BME280;48110;47.532;19.078;2023-08-21T14:03:32;100656.91;;;45.11;22.15
62124;BME280;48110;47.532;19.078;2023-08-21T14:06:35;100641.53;;;43.71;22.80
62124;BME280;48110;47.532;19.078;2023-08-21T14:09:38;100642.06;;;45.04;22.05
62124;BME280;48110;47.532;19.078;2023-08-21T14:12:41;100640.56;;;44.44;22.15
62124;BME280;48110;47.532;19.078;2023-08-21T14:15:44;100637.91;;;42.40;24.60
62124;BME280;48110;47.532;19.078;2023-08-21T14:18:47;100636.84;;;41.77;24.82
62124;BME280;48110;47.532;19.078;2023-08-21T14:21:50;100626.81;;;40.37;27.35
62124;BME280;48110;47.532;19.078;2023-08-21T14:24:52;100627.09;;;39.14;29.91
62124;BME280;48110;47.532;19.078;2023-08-21T14:27:55;100627.81;;;37.08;31.57
62124;BME280;48110;47.532;19.078;2023-08-21T14:30:58;100618.00;;;37.43;31.69
62124;BME280;48110;47.532;19.078;2023-08-21T14:34:02;100618.72;;;37.53;31.74
62124;BME280;48110;47.532;19.078;2023-08-21T14:37:05;100612.78;;;36.17;33.94
62124;BME280;48110;47.532;19.078;2023-08-21T14:40:08;100603.13;;;35.94;34.58
62124;BME280;48110;47.532;19.078;2023-08-21T14:43:12;100612.47;;;36.19;34.19
62124;BME280;48110;47.532;19.078;2023-08-21T14:46:15;100599.00;;;35.62;34.07
62124;BME280;48110;47.532;19.078;2023-08-21T14:49:36;100601.53;;;35.21;35.36
62124;BME280;48110;47.532;19.078;2023-08-21T14:52:39;100595.53;;;35.19;36.03
62124;BME280;48110;47.532;19.078;2023-08-21T14:55:42;100601.81;;;35.37;35.86
62124;BME280;48110;47.532;19.078;2023-08-21T14:58:45;100602.50;;;34.99;36.99
62124;BME280;48110;47.532;19.078;2023-08-21T15:01:48;100603.47;;;34.69;38.87
62124;BME280;48110;47.532;19.078;2023-08-21T15:04:51;100601.00;;;34.59;38.39
62124;BME280;48110;47.532;19.078;2023-08-21T15:07:54;100595.63;;;34.45;37.86
62124;BME280;48110;47.532;19.078;2023-08-21T15:10:57;100583.03;;;34.61;38.12
62124;BME280;48110;47.532;19.078;2023-08-21T15:14:01;100586.41;;;34.41;39.09
62124;BME280;48110;47.532;19.078;2023-08-21T15:17:05;100588.75;;;34.17;38.37
62124;BME280;48110;47.532;19.078;2023-08-21T15:20:14;100587.56;;;34.09;38.95
62124;BME280;48110;47.532;19.078;2023-08-21T15:23:18;100583.69;;;34.10;41.09
62124;BME280;48110;47.532;19.078;2023-08-21T15:26:21;100594.81;;;33.96;40.15
62124;BME280;48110;47.532;19.078;2023-08-21T15:29:24;100584.16;;;33.64;41.13
62124;BME280;48110;47.532;19.078;2023-08-21T15:32:27;100591.22;;;33.26;43.73
62124;BME280;48110;47.532;19.078;2023-08-21T15:35:29;100586.16;;;33.19;45.08
62124;BME280;48110;47.532;19.078;2023-08-21T15:38:32;100592.84;;;33.13;45.99
62124;BME280;48110;47.532;19.078;2023-08-21T15:41:36;100584.72;;;33.08;46.42
62124;BME280;48110;47.532;19.078;2023-08-21T15:44:38;100574.09;;;32.93;46.18
62124;BME280;48110;47.532;19.078;2023-08-21T15:47:41;100575.44;;;32.95;46.67
62124;BME280;48110;47.532;19.078;2023-08-21T15:50:50;100570.53;;;32.92;44.47